Time,TemperatureF,DewpointF,PressureIn,WindDirection,WindDirectionDegrees,WindSpeedMPH,WindSpeedGustMPH,Humidity,HourlyPrecipIn,Conditions,Clouds,dailyrainin,SoftwareType,DateUTC
2013-07-09 00:01:00,81.1,80.5,31.25,East,90,0.0,0.0,98,0.00,CLR,,0.00,WeatherDisplay:10.37,2013-07-09 04:01:00,
2013-07-09 00:02:00,81.1,80.5,31.25,East,90,0.0,0.0,98,0.00,CLR,,0.00,WeatherDisplay:10.37,2013-07-09 04:02:00,
2013-07-09 00:07:00,81.1,80.5,31.25,East,90,0.0,0.0,98,0.00,CLR,,0.00,WeatherDisplay:10.37,2013-07-09 04:07:00,
2013-07-09 00:12:00,81.1,80.5,31.25,East,90,0.0,0.0,98,0.00,CLR,,0.00,WeatherDisplay:10.37,2013-07-09 04:12:00,
2013-07-09 00:17:00,81.1,80.5,31.25,East,90,0.0,0.0,98,0.00,CLR,,0.00,WeatherDisplay:10.37,2013-07-09 04:17:00,
2013-07-09 00:22:00,81.1,80.5,31.25,East,90,0.0,0.0,98,0.00,CLR,,0.00,WeatherDisplay:10.37,2013-07-09 04:22:00,
2013-07-09 00:27:00,81.0,80.4,31.25,East,90,0.0,0.0,98,0.00,CLR,,0.00,WeatherDisplay:10.37,2013-07-09 04:27:00,
2013-07-09 00:32:00,80.8,80.2,31.25,East,90,0.0,0.0,98,0.00,CLR,,0.00,WeatherDisplay:10.37,2013-07-09 04:32:00,
2013-07-09 00:37:00,80.8,80.2,31.25,East,90,0.0,0.0,98,0.00,CLR,,0.00,WeatherDisplay:10.37,2013-07-09 04:37:00,
2013-07-09 00:42:00,80.6,80.0,31.25,East,90,0.0,0.0,98,0.00,CLR,,0.00,WeatherDisplay:10.37,2013-07-09 04:42:00,
2013-07-09 00:47:00,80.6,80.0,31.25,East,90,0.0,0.0,98,0.00,CLR,,0.00,WeatherDisplay:10.37,2013-07-09 04:47:00,
2013-07-09 00:52:00,80.6,80.0,31.25,East,90,0.0,0.0,98,0.00,CLR,,0.00,WeatherDisplay:10.37,2013-07-09 04:52:00,
2013-07-09 00:57:00,80.4,79.8,31.25,East,90,0.0,0.0,98,0.00,CLR,,0.00,WeatherDisplay:10.37,2013-07-09 04:57:00,
2013-07-09 01:02:00,80.4,79.8,31.25,East,90,0.0,0.0,98,0.00,CLR,,0.00,WeatherDisplay:10.37,2013-07-09 05:02:00,
2013-07-09 01:07:00,80.2,79.6,31.25,East,90,0.0,0.0,98,0.00,CLR,,0.00,WeatherDisplay:10.37,2013-07-09 05:07:00,
2013-07-09 01:12:00,79.9,79.3,31.25,East,90,0.0,0.0,98,0.00,CLR,,0.00,WeatherDisplay:10.37,2013-07-09 05:12:00,
2013-07-09 01:17:00,79.9,79.3,31.25,East,90,0.0,0.0,98,0.00,CLR,,0.00,WeatherDisplay:10.37,2013-07-09 05:17:00,
2013-07-09 01:22:00,79.7,79.1,31.25,East,90,0.0,0.0,98,0.00,CLR,,0.00,WeatherDisplay:10.37,2013-07-09 05:22:00,
2013-07-09 01:27:00,79.7,79.1,31.25,East,90,0.0,0.0,98,0.00,CLR,,0.00,WeatherDisplay:10.37,2013-07-09 05:27:00,
2013-07-09 01:32:00,79.5,78.9,31.25,East,90,0.0,0.0,98,0.00,CLR,,0.00,WeatherDisplay:10.37,2013-07-09 05:32:00,
2013-07-09 01:37:00,79.3,78.7,31.25,East,90,0.0,0.0,98,0.00,CLR,,0.00,WeatherDisplay:10.37,2013-07-09 05:37:00,
2013-07-09 01:42:00,79.3,78.7,31.25,East,90,0.0,0.0,98,0.00,CLR,,0.00,WeatherDisplay:10.37,2013-07-09 05:42:00,
2013-07-09 01:47:00,79.2,78.6,31.44,East,90,0.0,0.0,98,0.00,CLR,,0.00,WeatherDisplay:10.37,2013-07-09 05:47:00,
2013-07-09 01:52:00,79.2,78.6,31.44,East,90,0.0,0.0,98,0.00,CLR,,0.00,WeatherDisplay:10.37,2013-07-09 05:52:00,
2013-07-09 01:57:00,79.0,78.4,31.44,East,90,0.0,0.0,98,0.00,CLR,,0.00,WeatherDisplay:10.37,2013-07-09 05:57:00,
2013-07-09 02:02:00,79.0,78.4,30.46,East,90,0.0,0.0,98,0.00,CLR,,0.00,WeatherDisplay:10.37,2013-07-09 06:02:00,
2013-07-09 02:07:00,78.8,78.2,30.46,East,90,0.0,0.0,98,0.00,CLR,,0.00,WeatherDisplay:10.37,2013-07-09 06:07:00,
2013-07-09 02:12:00,78.8,78.2,29.72,East,90,0.0,0.0,98,0.00,CLR,,0.00,WeatherDisplay:10.37,2013-07-09 06:12:00,
2013-07-09 02:17:00,78.8,78.2,29.72,East,90,0.0,0.0,98,0.00,CLR,,0.00,WeatherDisplay:10.37,2013-07-09 06:17:00,
2013-07-09 02:22:00,78.8,78.2,30.05,East,90,0.0,0.0,98,0.00,CLR,,0.00,WeatherDisplay:10.37,2013-07-09 06:22:00,
2013-07-09 02:27:00,78.8,78.2,30.05,East,90,0.0,0.0,98,0.00,CLR,,0.00,WeatherDisplay:10.37,2013-07-09 06:27:00,
2013-07-09 02:32:00,78.8,78.2,30.05,East,90,0.0,0.0,98,0.00,CLR,,0.00,WeatherDisplay:10.37,2013-07-09 06:32:00,
2013-07-09 02:37:00,78.8,78.2,32.08,East,90,0.0,0.0,98,0.00,CLR,,0.00,WeatherDisplay:10.37,2013-07-09 06:37:00,
2013-07-09 02:42:00,78.8,78.2,32.08,East,90,0.0,0.0,98,0.00,CLR,,0.00,WeatherDisplay:10.37,2013-07-09 06:42:00,
2013-07-09 02:47:00,79.0,78.4,30.05,East,90,0.0,0.0,98,0.00,CLR,,0.00,WeatherDisplay:10.37,2013-07-09 06:47:00,
2013-07-09 02:52:00,79.2,78.6,30.05,East,90,0.0,0.0,98,0.00,CLR,,0.00,WeatherDisplay:10.37,2013-07-09 06:52:00,
2013-07-09 02:57:00,79.3,78.7,30.05,East,90,1.1,1.1,98,0.00,CLR,,0.00,WeatherDisplay:10.37,2013-07-09 06:57:00,
2013-07-09 03:02:00,79.2,78.6,30.05,East,90,0.0,0.0,98,0.00,CLR,,0.00,WeatherDisplay:10.37,2013-07-09 07:02:00,
2013-07-09 03:07:00,79.0,78.4,30.05,East,90,0.0,0.0,98,0.00,CLR,,0.00,WeatherDisplay:10.37,2013-07-09 07:07:00,
2013-07-09 03:12:00,78.6,78.0,30.05,East,90,0.0,0.0,98,0.00,CLR,,0.00,WeatherDisplay:10.37,2013-07-09 07:12:00,
2013-07-09 03:17:00,78.6,78.0,30.05,East,90,0.0,0.0,98,0.00,CLR,,0.00,WeatherDisplay:10.37,2013-07-09 07:17:00,
2013-07-09 03:22:00,78.4,77.8,30.05,East,90,0.0,0.0,98,0.00,CLR,,0.00,WeatherDisplay:10.37,2013-07-09 07:22:00,
2013-07-09 03:27:00,78.3,77.7,30.05,East,90,0.0,0.0,98,0.00,CLR,,0.00,WeatherDisplay:10.37,2013-07-09 07:27:00,
2013-07-09 03:32:00,78.3,77.7,30.05,East,90,0.0,0.0,98,0.00,CLR,,0.00,WeatherDisplay:10.37,2013-07-09 07:32:00,
2013-07-09 03:37:00,78.3,77.7,30.05,East,90,0.0,0.0,98,0.00,CLR,,0.00,WeatherDisplay:10.37,2013-07-09 07:37:00,
2013-07-09 03:42:00,78.3,77.7,30.05,East,90,0.0,0.0,98,0.00,CLR,,0.00,WeatherDisplay:10.37,2013-07-09 07:42:00,
2013-07-09 03:47:00,78.1,77.5,30.05,East,90,0.0,0.0,98,0.00,CLR,,0.00,WeatherDisplay:10.37,2013-07-09 07:47:00,
2013-07-09 03:52:00,77.9,77.3,30.05,East,90,0.0,0.0,98,0.00,CLR,,0.00,WeatherDisplay:10.37,2013-07-09 07:52:00,
2013-07-09 03:57:00,77.9,77.3,30.05,East,90,0.0,0.0,98,0.00,CLR,,0.00,WeatherDisplay:10.37,2013-07-09 07:57:00,
2013-07-09 04:02:00,77.7,77.1,32.00,East,90,0.0,0.0,98,0.00,CLR,,0.00,WeatherDisplay:10.37,2013-07-09 08:02:00,
2013-07-09 04:07:00,77.5,76.9,32.00,East,90,0.0,0.0,98,0.00,CLR,,0.00,WeatherDisplay:10.37,2013-07-09 08:07:00,
2013-07-09 04:12:00,77.5,76.9,30.85,East,90,0.0,0.0,98,0.00,CLR,,0.00,WeatherDisplay:10.37,2013-07-09 08:12:00,
2013-07-09 04:17:00,77.5,76.9,30.85,East,90,0.0,0.0,98,0.00,CLR,,0.00,WeatherDisplay:10.37,2013-07-09 08:17:00,
2013-07-09 04:22:00,77.5,76.9,30.17,East,90,0.0,0.0,98,0.00,CLR,,0.00,WeatherDisplay:10.37,2013-07-09 08:22:00,
2013-07-09 04:27:00,77.5,76.9,30.17,East,90,0.0,0.0,98,0.00,CLR,,0.00,WeatherDisplay:10.37,2013-07-09 08:27:00,
2013-07-09 04:32:00,77.5,76.9,30.17,East,90,0.0,0.0,98,0.00,CLR,,0.00,WeatherDisplay:10.37,2013-07-09 08:32:00,
2013-07-09 04:37:00,77.4,76.8,29.65,East,90,0.0,0.0,98,0.00,CLR,,0.00,WeatherDisplay:10.37,2013-07-09 08:37:00,
2013-07-09 04:42:00,77.4,76.8,29.65,East,90,0.0,0.0,98,0.00,CLR,,0.00,WeatherDisplay:10.37,2013-07-09 08:42:00,
2013-07-09 04:47:00,77.4,76.8,29.61,East,90,0.0,0.0,98,0.00,CLR,,0.00,WeatherDisplay:10.37,2013-07-09 08:47:00,
2013-07-09 04:52:00,77.4,76.8,29.61,East,90,0.0,0.0,98,0.00,CLR,,0.00,WeatherDisplay:10.37,2013-07-09 08:52:00,
2013-07-09 04:57:00,77.5,76.9,29.61,East,90,0.0,0.0,98,0.00,CLR,,0.00,WeatherDisplay:10.37,2013-07-09 08:57:00,
2013-07-09 05:02:00,77.5,76.9,31.83,East,90,0.0,0.0,98,0.00,CLR,,0.00,WeatherDisplay:10.37,2013-07-09 09:02:00,
2013-07-09 05:07:00,77.4,76.8,31.83,East,90,0.0,0.0,98,0.00,CLR,,0.00,WeatherDisplay:10.37,2013-07-09 09:07:00,
2013-07-09 05:12:00,77.4,76.8,31.83,East,90,0.0,0.0,98,0.00,CLR,,0.00,WeatherDisplay:10.37,2013-07-09 09:12:00,
2013-07-09 05:17:00,77.2,76.6,31.83,East,90,0.0,0.0,98,0.00,CLR,,0.00,WeatherDisplay:10.37,2013-07-09 09:17:00,
2013-07-09 05:22:00,77.0,76.4,31.83,East,90,0.0,0.0,98,0.00,CLR,,0.00,WeatherDisplay:10.37,2013-07-09 09:22:00,
2013-07-09 05:27:00,77.2,76.6,31.83,East,90,0.0,0.0,98,0.00,CLR,,0.00,WeatherDisplay:10.37,2013-07-09 09:27:00,
2013-07-09 05:33:00,77.0,76.4,31.83,East,90,0.0,0.0,98,0.00,CLR,,0.00,WeatherDisplay:10.37,2013-07-09 09:33:00,
2013-07-09 05:38:00,77.2,76.6,31.83,East,90,0.0,0.0,98,0.00,CLR,,0.00,WeatherDisplay:10.37,2013-07-09 09:38:00,
2013-07-09 05:43:00,77.2,76.6,31.83,East,90,0.0,0.0,98,0.00,CLR,,0.00,WeatherDisplay:10.37,2013-07-09 09:43:00,
2013-07-09 05:48:00,77.0,76.4,31.83,East,90,0.0,0.0,98,0.00,CLR,,0.00,WeatherDisplay:10.37,2013-07-09 09:48:00,
2013-07-09 05:53:00,77.0,76.4,31.83,East,90,0.0,0.0,98,0.00,CLR,,0.00,WeatherDisplay:10.37,2013-07-09 09:53:00,
2013-07-09 05:58:00,77.0,76.4,31.83,East,90,0.0,0.0,98,0.00,CLR,,0.00,WeatherDisplay:10.37,2013-07-09 09:58:00,
2013-07-09 06:03:00,77.0,76.4,31.83,East,90,0.0,0.0,98,0.00,CLR,,0.00,WeatherDisplay:10.37,2013-07-09 10:03:00,
2013-07-09 06:08:00,77.0,76.4,31.83,East,90,0.0,0.0,98,0.00,CLR,,0.00,WeatherDisplay:10.37,2013-07-09 10:08:00,
2013-07-09 06:13:00,77.0,76.4,32.17,East,90,0.0,0.0,98,0.00,CLR,,0.00,WeatherDisplay:10.37,2013-07-09 10:13:00,
2013-07-09 06:18:00,77.0,76.4,32.17,East,90,0.0,0.0,98,0.00,CLR,,0.00,WeatherDisplay:10.37,2013-07-09 10:18:00,
2013-07-09 06:23:00,77.0,76.4,31.05,East,90,0.0,0.0,98,0.00,CLR,,0.00,WeatherDisplay:10.37,2013-07-09 10:23:00,
2013-07-09 06:28:00,77.0,76.4,31.05,East,90,0.0,0.0,98,0.00,CLR,,0.00,WeatherDisplay:10.37,2013-07-09 10:28:00,
2013-07-09 06:33:00,77.0,76.4,31.05,East,90,0.0,0.0,98,0.00,CLR,,0.00,WeatherDisplay:10.37,2013-07-09 10:33:00,
2013-07-09 06:38:00,77.0,76.4,30.26,East,90,0.0,0.0,98,0.00,CLR,,0.00,WeatherDisplay:10.37,2013-07-09 10:38:00,
2013-07-09 06:43:00,77.0,76.4,30.26,East,90,0.0,0.0,98,0.00,CLR,,0.00,WeatherDisplay:10.37,2013-07-09 10:43:00,
2013-07-09 06:48:00,77.0,76.4,29.53,East,90,0.0,0.0,98,0.00,CLR,,0.00,WeatherDisplay:10.37,2013-07-09 10:48:00,
2013-07-09 06:53:00,77.2,76.6,29.53,East,90,0.0,0.0,98,0.00,CLR,,0.00,WeatherDisplay:10.37,2013-07-09 10:53:00,
2013-07-09 06:58:00,77.4,76.8,29.53,East,90,0.0,0.0,98,0.00,CLR,,0.00,WeatherDisplay:10.37,2013-07-09 10:58:00,
2013-07-09 07:03:00,77.4,76.8,29.16,ESE,112,0.0,0.0,98,0.00,CLR,,0.00,WeatherDisplay:10.37,2013-07-09 11:03:00,
2013-07-09 07:08:00,77.5,76.9,29.16,ESE,112,0.0,0.0,98,0.00,CLR,,0.00,WeatherDisplay:10.37,2013-07-09 11:08:00,
2013-07-09 07:13:00,77.5,76.9,31.03,ESE,112,0.0,0.0,98,0.00,CLR,,0.00,WeatherDisplay:10.37,2013-07-09 11:13:00,
2013-07-09 07:18:00,77.7,77.1,31.03,ESE,112,0.0,0.0,98,0.00,CLR,,0.00,WeatherDisplay:10.37,2013-07-09 11:18:00,
2013-07-09 07:23:00,77.9,77.3,32.18,ESE,112,0.0,0.0,98,0.00,CLR,,0.00,WeatherDisplay:10.37,2013-07-09 11:23:00,
2013-07-09 07:28:00,78.1,77.5,32.18,SE,135,0.0,0.0,98,0.00,CLR,,0.00,WeatherDisplay:10.37,2013-07-09 11:28:00,
2013-07-09 07:33:00,78.4,77.8,32.18,SE,135,0.0,0.0,98,0.00,CLR,,0.00,WeatherDisplay:10.37,2013-07-09 11:33:00,
2013-07-09 07:38:00,78.6,78.0,31.03,SE,135,0.0,0.0,98,0.00,CLR,,0.00,WeatherDisplay:10.37,2013-07-09 11:38:00,
2013-07-09 07:43:00,78.6,78.0,31.03,SE,135,0.0,0.0,98,0.00,CLR,,0.00,WeatherDisplay:10.37,2013-07-09 11:43:00,
2013-07-09 07:48:00,79.0,78.4,31.14,SE,135,0.0,0.0,98,0.00,CLR,,0.00,WeatherDisplay:10.37,2013-07-09 11:48:00,
2013-07-09 07:53:00,79.2,78.6,31.14,SE,135,0.0,0.0,98,0.00,CLR,,0.00,WeatherDisplay:10.37,2013-07-09 11:53:00,
2013-07-09 07:58:00,79.5,78.9,31.14,SE,135,0.0,0.0,98,0.00,CLR,,0.00,WeatherDisplay:10.37,2013-07-09 11:58:00,
2013-07-09 08:03:00,80.1,79.5,29.77,SE,135,1.1,1.1,98,0.00,CLR,,0.00,WeatherDisplay:10.37,2013-07-09 12:03:00,
2013-07-09 08:08:00,81.0,80.4,29.77,SE,135,0.0,0.0,98,0.00,CLR,,0.00,WeatherDisplay:10.37,2013-07-09 12:08:00,
2013-07-09 08:13:00,81.3,80.7,28.81,SE,135,0.0,0.0,98,0.00,CLR,,0.00,WeatherDisplay:10.37,2013-07-09 12:13:00,
2013-07-09 08:18:00,81.7,81.1,28.81,SE,135,0.0,0.0,98,0.00,CLR,,0.00,WeatherDisplay:10.37,2013-07-09 12:18:00,
2013-07-09 08:23:00,82.2,81.6,28.23,SE,135,0.0,0.0,98,0.00,CLR,,0.00,WeatherDisplay:10.37,2013-07-09 12:23:00,
2013-07-09 08:28:00,82.6,82.0,28.23,SE,135,0.0,0.0,98,0.00,CLR,,0.00,WeatherDisplay:10.37,2013-07-09 12:28:00,
2013-07-09 08:33:00,82.9,82.3,28.23,SE,135,1.1,1.1,98,0.00,CLR,,0.00,WeatherDisplay:10.37,2013-07-09 12:33:00,
2013-07-09 08:38:00,83.7,83.1,27.91,SE,135,0.0,0.0,98,0.00,CLR,,0.00,WeatherDisplay:10.37,2013-07-09 12:38:00,
2013-07-09 08:43:00,83.8,83.2,27.91,SE,135,0.0,0.0,98,0.00,CLR,,0.00,WeatherDisplay:10.37,2013-07-09 12:43:00,
2013-07-09 08:48:00,83.5,82.9,27.63,SE,135,0.0,0.0,98,0.00,CLR,,0.00,WeatherDisplay:10.37,2013-07-09 12:48:00,
2013-07-09 08:53:00,83.1,82.5,27.63,SE,135,0.0,0.0,98,0.00,CLR,,0.00,WeatherDisplay:10.37,2013-07-09 12:53:00,
2013-07-09 08:58:00,82.8,82.2,27.63,SE,135,0.0,0.0,98,0.00,CLR,,0.00,WeatherDisplay:10.37,2013-07-09 12:58:00,
2013-07-09 09:03:00,84.4,83.8,27.38,SE,135,0.0,0.0,98,0.00,CLR,,0.00,WeatherDisplay:10.37,2013-07-09 13:03:00,
2013-07-09 09:08:00,84.9,84.3,27.38,SE,135,0.0,0.0,98,0.00,CLR,,0.00,WeatherDisplay:10.37,2013-07-09 13:08:00,
2013-07-09 09:13:00,85.6,85.0,27.10,SE,135,0.0,0.0,98,0.00,CLR,,0.00,WeatherDisplay:10.37,2013-07-09 13:13:00,
2013-07-09 09:18:00,86.0,85.4,27.10,SE,135,0.0,0.0,98,0.00,CLR,,0.00,WeatherDisplay:10.37,2013-07-09 13:18:00,
2013-07-09 09:23:00,87.3,86.7,26.93,SE,135,0.0,0.0,98,0.00,CLR,,0.00,WeatherDisplay:10.37,2013-07-09 13:23:00,
2013-07-09 09:28:00,88.3,87.7,26.93,SE,135,0.0,0.0,98,0.00,CLR,,0.00,WeatherDisplay:10.37,2013-07-09 13:28:00,
2013-07-09 09:33:00,87.1,86.5,26.93,SE,135,0.0,0.0,98,0.00,CLR,,0.00,WeatherDisplay:10.37,2013-07-09 13:33:00,
2013-07-09 09:38:00,85.6,85.0,28.11,ESE,112,1.7,1.7,98,0.00,CLR,,0.00,WeatherDisplay:10.37,2013-07-09 13:38:00,
2013-07-09 09:43:00,85.3,84.7,28.11,ESE,112,0.0,0.0,98,0.00,CLR,,0.00,WeatherDisplay:10.37,2013-07-09 13:43:00,
2013-07-09 09:48:00,84.9,84.3,29.79,ESE,112,0.0,0.0,98,0.00,CLR,,0.00,WeatherDisplay:10.37,2013-07-09 13:48:00,
2013-07-09 09:53:00,85.8,85.2,29.79,ESE,112,0.0,0.0,98,0.00,CLR,,0.00,WeatherDisplay:10.37,2013-07-09 13:53:00,
2013-07-09 09:58:00,86.4,85.8,29.79,ESE,112,0.0,0.0,98,0.00,CLR,,0.00,WeatherDisplay:10.37,2013-07-09 13:58:00,
2013-07-09 10:03:00,86.5,85.9,30.96,ESE,112,0.0,0.0,98,0.00,CLR,,0.00,WeatherDisplay:10.37,2013-07-09 14:03:00,
2013-07-09 10:08:00,85.8,85.2,30.96,ESE,112,0.0,0.0,98,0.00,CLR,,0.00,WeatherDisplay:10.37,2013-07-09 14:08:00,
2013-07-09 10:13:00,86.2,85.6,31.76,ESE,112,0.0,0.0,98,0.00,CLR,,0.00,WeatherDisplay:10.37,2013-07-09 14:13:00,
2013-07-09 10:18:00,86.5,85.9,31.76,ESE,112,1.1,1.1,98,0.00,CLR,,0.00,WeatherDisplay:10.37,2013-07-09 14:18:00,
2013-07-09 10:23:00,86.0,85.4,31.31,ESE,112,0.0,0.0,98,0.00,CLR,,0.00,WeatherDisplay:10.37,2013-07-09 14:23:00,
2013-07-09 10:28:00,86.2,85.6,31.31,ESE,112,1.1,1.1,98,0.00,CLR,,0.00,WeatherDisplay:10.37,2013-07-09 14:28:00,
2013-07-09 10:33:00,86.2,85.6,31.31,ESE,112,0.0,0.0,98,0.00,CLR,,0.00,WeatherDisplay:10.37,2013-07-09 14:33:00,
2013-07-09 10:38:00,84.9,84.3,29.42,ESE,112,0.0,0.0,98,0.00,CLR,,0.00,WeatherDisplay:10.37,2013-07-09 14:38:00,
2013-07-09 10:43:00,86.4,85.8,29.42,ESE,112,1.1,1.1,98,0.00,CLR,,0.00,WeatherDisplay:10.37,2013-07-09 14:43:00,
2013-07-09 10:48:00,85.5,84.9,28.19,SE,135,2.3,2.3,98,0.00,CLR,,0.00,WeatherDisplay:10.37,2013-07-09 14:48:00,
2013-07-09 10:53:00,85.1,84.5,28.19,ESE,112,1.1,1.1,98,0.00,CLR,,0.00,WeatherDisplay:10.37,2013-07-09 14:53:00,
2013-07-09 10:58:00,84.7,84.1,28.19,ESE,112,0.0,0.0,98,0.00,CLR,,0.00,WeatherDisplay:10.37,2013-07-09 14:58:00,
2013-07-09 11:03:00,84.4,83.8,27.48,SE,135,2.3,2.3,98,0.00,CLR,,0.00,WeatherDisplay:10.37,2013-07-09 15:03:00,
2013-07-09 11:08:00,84.9,84.3,27.48,SSE,158,0.0,0.0,98,0.00,CLR,,0.00,WeatherDisplay:10.37,2013-07-09 15:08:00,
2013-07-09 11:13:00,84.0,83.4,27.37,South,180,0.0,0.0,98,0.00,CLR,,0.00,WeatherDisplay:10.37,2013-07-09 15:13:00,
2013-07-09 11:18:00,84.2,83.6,27.37,ESE,112,0.0,0.0,98,0.00,CLR,,0.00,WeatherDisplay:10.37,2013-07-09 15:18:00,
2013-07-09 11:23:00,82.9,82.3,29.35,ESE,112,0.0,0.0,98,0.00,CLR,,0.00,WeatherDisplay:10.37,2013-07-09 15:23:00,
2013-07-09 11:28:00,81.1,80.5,29.35,South,180,0.0,0.0,98,0.00,CLR,,0.00,WeatherDisplay:10.37,2013-07-09 15:28:00,
2013-07-09 11:33:00,80.2,79.6,29.35,ENE,68,0.0,0.0,98,0.00,CLR,,0.00,WeatherDisplay:10.37,2013-07-09 15:33:00,
2013-07-09 11:38:00,82.4,81.8,30.60,ENE,68,0.0,0.0,98,0.00,CLR,,0.00,WeatherDisplay:10.37,2013-07-09 15:38:00,
2013-07-09 11:43:00,85.3,84.7,30.60,ENE,68,0.0,0.0,98,0.00,CLR,,0.00,WeatherDisplay:10.37,2013-07-09 15:43:00,
2013-07-09 11:48:00,85.8,85.2,31.36,ENE,68,0.0,0.0,98,0.00,CLR,,0.00,WeatherDisplay:10.37,2013-07-09 15:48:00,
2013-07-09 11:53:00,86.7,86.1,31.36,ENE,68,0.0,0.0,98,0.00,CLR,,0.00,WeatherDisplay:10.37,2013-07-09 15:53:00,
2013-07-09 11:58:00,86.5,85.9,31.36,ENE,68,0.0,0.0,98,0.00,CLR,,0.00,WeatherDisplay:10.37,2013-07-09 15:58:00,
2013-07-09 12:03:00,86.0,85.4,31.77,ENE,68,0.0,0.0,98,0.00,CLR,,0.00,WeatherDisplay:10.37,2013-07-09 16:03:00,
2013-07-09 12:08:00,86.7,86.1,31.77,ENE,68,0.0,0.0,98,0.00,CLR,,0.00,WeatherDisplay:10.37,2013-07-09 16:08:00,
2013-07-09 12:13:00,84.9,84.3,32.01,ENE,68,0.0,0.0,98,0.00,CLR,,0.00,WeatherDisplay:10.37,2013-07-09 16:13:00,
2013-07-09 12:18:00,86.2,85.6,32.01,ENE,68,0.0,0.0,98,0.00,CLR,,0.00,WeatherDisplay:10.37,2013-07-09 16:18:00,
2013-07-09 12:23:00,86.2,85.6,32.18,ENE,68,1.1,0.0,98,0.00,CLR,,0.00,WeatherDisplay:10.37,2013-07-09 16:23:00,
2013-07-09 12:28:00,84.4,83.8,32.18,ENE,68,1.1,1.1,98,0.00,CLR,,0.00,WeatherDisplay:10.37,2013-07-09 16:28:00,
2013-07-09 12:33:00,83.7,83.1,32.18,ENE,68,0.0,0.0,98,0.00,CLR,,0.00,WeatherDisplay:10.37,2013-07-09 16:33:00,
2013-07-09 12:38:00,83.5,82.9,30.68,ENE,68,0.0,0.0,98,0.00,CLR,,0.00,WeatherDisplay:10.37,2013-07-09 16:38:00,
2013-07-09 12:43:00,84.4,83.8,30.68,ENE,68,0.0,0.0,98,0.00,CLR,,0.00,WeatherDisplay:10.37,2013-07-09 16:43:00,
2013-07-09 12:48:00,87.3,86.7,29.09,ENE,68,1.1,1.1,98,0.00,CLR,,0.00,WeatherDisplay:10.37,2013-07-09 16:48:00,
2013-07-09 12:53:00,85.5,84.9,29.09,ENE,68,0.0,0.0,98,0.00,CLR,,0.00,WeatherDisplay:10.37,2013-07-09 16:53:00,
2013-07-09 12:58:00,87.1,86.5,29.09,ENE,68,2.3,2.3,98,0.00,CLR,,0.00,WeatherDisplay:10.37,2013-07-09 16:58:00,
2013-07-09 13:03:00,86.7,86.1,28.06,ENE,68,0.0,0.0,98,0.00,CLR,,0.00,WeatherDisplay:10.37,2013-07-09 17:03:00,
2013-07-09 13:08:00,86.9,86.3,28.06,ENE,68,0.0,0.0,98,0.00,CLR,,0.00,WeatherDisplay:10.37,2013-07-09 17:08:00,
2013-07-09 13:13:00,86.7,86.1,27.57,ENE,68,0.0,0.0,98,0.00,CLR,,0.00,WeatherDisplay:10.37,2013-07-09 17:13:00,
2013-07-09 13:18:00,88.3,87.7,27.57,ENE,68,0.0,0.0,98,0.00,CLR,,0.00,WeatherDisplay:10.37,2013-07-09 17:18:00,
2013-07-09 13:23:00,88.5,87.9,29.16,ENE,68,0.0,0.0,98,0.00,CLR,,0.00,WeatherDisplay:10.37,2013-07-09 17:23:00,
2013-07-09 13:28:00,88.2,87.6,29.16,ENE,68,0.0,0.0,98,0.00,CLR,,0.00,WeatherDisplay:10.37,2013-07-09 17:28:00,
2013-07-09 13:33:00,86.9,86.3,29.16,ENE,68,0.0,0.0,98,0.00,CLR,,0.00,WeatherDisplay:10.37,2013-07-09 17:33:00,
2013-07-09 13:38:00,87.8,87.2,30.28,ENE,68,0.0,0.0,98,0.00,CLR,,0.00,WeatherDisplay:10.37,2013-07-09 17:38:00,
2013-07-09 13:43:00,88.3,87.7,30.28,ENE,68,1.1,1.1,98,0.00,CLR,,0.00,WeatherDisplay:10.37,2013-07-09 17:43:00,
2013-07-09 13:48:00,88.0,87.4,30.92,ENE,68,0.0,0.0,98,0.00,CLR,,0.00,WeatherDisplay:10.37,2013-07-09 17:48:00,
2013-07-09 13:53:00,85.6,85.0,30.92,ENE,68,1.1,1.1,98,0.00,CLR,,0.00,WeatherDisplay:10.37,2013-07-09 17:53:00,
2013-07-09 13:58:00,84.2,83.6,30.92,ENE,68,0.0,0.0,98,0.00,CLR,,0.00,WeatherDisplay:10.37,2013-07-09 17:58:00,
2013-07-09 14:03:00,84.9,84.3,31.29,ENE,68,0.0,0.0,98,0.00,CLR,,0.00,WeatherDisplay:10.37,2013-07-09 18:03:00,
2013-07-09 14:08:00,85.1,84.5,31.29,ENE,68,0.0,0.0,98,0.00,CLR,,0.00,WeatherDisplay:10.37,2013-07-09 18:08:00,
2013-07-09 14:13:00,85.1,84.5,31.61,ENE,68,0.0,0.0,98,0.00,CLR,,0.00,WeatherDisplay:10.37,2013-07-09 18:13:00,
2013-07-09 14:18:00,85.1,84.5,31.61,ENE,68,0.0,0.0,98,0.00,CLR,,0.00,WeatherDisplay:10.37,2013-07-09 18:18:00,
2013-07-09 14:23:00,85.6,85.0,31.86,ENE,68,1.1,0.0,98,0.00,CLR,,0.00,WeatherDisplay:10.37,2013-07-09 18:23:00,
2013-07-09 14:28:00,85.3,84.7,31.86,ENE,68,0.0,0.0,98,0.00,CLR,,0.00,WeatherDisplay:10.37,2013-07-09 18:28:00,
2013-07-09 14:33:00,85.3,84.7,31.86,ESE,112,1.1,1.1,98,0.00,CLR,,0.00,WeatherDisplay:10.37,2013-07-09 18:33:00,
2013-07-09 14:38:00,85.3,84.7,32.14,ESE,112,1.1,0.0,98,0.03,RA,,0.03,WeatherDisplay:10.37,2013-07-09 18:38:00,
2013-07-09 14:43:00,83.1,82.5,32.14,SE,135,0.0,0.0,98,0.22,RA,,0.22,WeatherDisplay:10.37,2013-07-09 18:43:00,
2013-07-09 14:48:00,81.3,80.7,32.43,ESE,112,0.0,0.0,98,0.26,RA,,0.27,WeatherDisplay:10.37,2013-07-09 18:48:00,
2013-07-09 14:53:00,82.8,82.2,32.43,ESE,112,1.1,1.1,98,0.27,RA,,0.28,WeatherDisplay:10.37,2013-07-09 18:53:00,
2013-07-09 14:58:00,83.3,82.7,32.43,ESE,112,0.0,0.0,98,0.28,RA,,0.28,WeatherDisplay:10.37,2013-07-09 18:58:00,
2013-07-09 15:03:00,81.3,80.7,31.86,ESE,112,0.0,0.0,98,0.28,RA,,0.28,WeatherDisplay:10.37,2013-07-09 19:03:00,
2013-07-09 15:08:00,82.2,81.6,31.86,ESE,112,0.0,0.0,98,0.28,CLR,,0.28,WeatherDisplay:10.37,2013-07-09 19:08:00,
2013-07-09 15:13:00,82.8,82.2,31.90,ESE,112,2.3,2.3,98,0.28,CLR,,0.28,WeatherDisplay:10.37,2013-07-09 19:13:00,
2013-07-09 15:18:00,83.5,82.9,31.90,ESE,112,0.0,0.0,98,0.28,CLR,,0.28,WeatherDisplay:10.37,2013-07-09 19:18:00,
2013-07-09 15:23:00,84.2,83.6,29.87,ESE,112,0.0,0.0,98,0.28,CLR,,0.28,WeatherDisplay:10.37,2013-07-09 19:23:00,
2013-07-09 15:28:00,85.1,84.5,29.87,ESE,112,0.0,0.0,98,0.28,CLR,,0.28,WeatherDisplay:10.37,2013-07-09 19:28:00,
2013-07-09 15:33:00,83.3,82.7,29.87,ESE,112,1.1,1.1,98,0.28,CLR,,0.28,WeatherDisplay:10.37,2013-07-09 19:33:00,
2013-07-09 15:38:00,84.0,83.4,28.53,ESE,112,0.0,0.0,98,0.25,CLR,,0.28,WeatherDisplay:10.37,2013-07-09 19:38:00,
2013-07-09 15:43:00,83.3,82.7,28.53,NNE,22,0.0,0.0,98,0.06,CLR,,0.28,WeatherDisplay:10.37,2013-07-09 19:43:00,
2013-07-09 15:48:00,81.7,81.1,28.46,SE,135,0.0,0.0,98,0.02,CLR,,0.28,WeatherDisplay:10.37,2013-07-09 19:48:00,
2013-07-09 15:53:00,81.1,80.5,28.46,SE,135,1.1,0.0,98,0.02,RA,,0.29,WeatherDisplay:10.37,2013-07-09 19:53:00,
2013-07-09 15:58:00,81.3,80.7,28.46,SE,135,0.0,0.0,98,0.02,RA,,0.30,WeatherDisplay:10.37,2013-07-09 19:58:00,
2013-07-09 16:03:00,81.0,80.4,30.28,SE,135,0.0,0.0,98,0.02,RA,,0.30,WeatherDisplay:10.37,2013-07-09 20:03:00,
2013-07-09 16:08:00,81.1,80.5,30.28,SE,135,0.0,0.0,98,0.02,,,0.30,WeatherDisplay:10.37,2013-07-09 20:08:00,
2013-07-09 16:13:00,81.0,80.4,31.53,SE,135,0.0,0.0,98,0.02,CLR,,0.30,WeatherDisplay:10.37,2013-07-09 20:13:00,
2013-07-09 16:18:00,81.0,80.4,31.53,SE,135,0.0,0.0,98,0.02,CLR,,0.30,WeatherDisplay:10.37,2013-07-09 20:18:00,
2013-07-09 16:23:00,81.0,80.4,32.23,SE,135,0.0,0.0,98,0.02,CLR,,0.30,WeatherDisplay:10.37,2013-07-09 20:23:00,
2013-07-09 16:28:00,81.5,80.9,32.23,SE,135,0.0,0.0,98,0.02,CLR,,0.30,WeatherDisplay:10.37,2013-07-09 20:28:00,
2013-07-09 16:33:00,82.9,82.3,32.23,SE,135,0.0,0.0,98,0.02,CLR,,0.30,WeatherDisplay:10.37,2013-07-09 20:33:00,
2013-07-09 16:38:00,83.7,83.1,32.29,SE,135,0.0,0.0,98,0.02,CLR,,0.30,WeatherDisplay:10.37,2013-07-09 20:38:00,
2013-07-09 16:43:00,85.5,84.9,32.29,SE,135,0.0,0.0,98,0.02,CLR,,0.30,WeatherDisplay:10.37,2013-07-09 20:43:00,
2013-07-09 16:48:00,86.0,85.4,32.28,SE,135,0.0,0.0,98,0.02,CLR,,0.30,WeatherDisplay:10.37,2013-07-09 20:48:00,
2013-07-09 16:53:00,87.1,86.5,32.28,SE,135,0.0,0.0,98,0.01,CLR,,0.30,WeatherDisplay:10.37,2013-07-09 20:53:00,
2013-07-09 16:58:00,87.1,86.5,32.28,SE,135,0.0,0.7,98,0.00,CLR,,0.30,WeatherDisplay:10.37,2013-07-09 20:58:00,
2013-07-09 17:03:00,86.7,86.1,32.34,SE,135,1.1,1.1,98,0.00,CLR,,0.30,WeatherDisplay:10.37,2013-07-09 21:03:00,
2013-07-09 17:08:00,86.5,85.9,32.34,SE,135,0.0,0.0,98,0.00,CLR,,0.30,WeatherDisplay:10.37,2013-07-09 21:08:00,
2013-07-09 17:13:00,85.5,84.9,32.44,SE,135,1.1,1.1,98,0.00,CLR,,0.30,WeatherDisplay:10.37,2013-07-09 21:13:00,
2013-07-09 17:18:00,85.5,84.9,32.44,SE,135,0.0,0.0,98,0.00,CLR,,0.30,WeatherDisplay:10.37,2013-07-09 21:18:00,
2013-07-09 17:23:00,85.1,84.5,31.53,SE,135,0.0,0.0,98,0.00,CLR,,0.30,WeatherDisplay:10.37,2013-07-09 21:23:00,
2013-07-09 17:28:00,85.1,84.5,31.53,SE,135,0.0,0.5,98,0.00,CLR,,0.30,WeatherDisplay:10.37,2013-07-09 21:28:00,
2013-07-09 17:33:00,84.6,84.0,31.53,SE,135,0.0,0.0,98,0.00,CLR,,0.30,WeatherDisplay:10.37,2013-07-09 21:33:00,
2013-07-09 17:38:00,84.9,84.3,31.53,SE,135,0.0,0.0,98,0.00,CLR,,0.30,WeatherDisplay:10.37,2013-07-09 21:38:00,
2013-07-09 17:43:00,84.9,84.3,31.53,SE,135,0.0,0.3,98,0.00,CLR,,0.30,WeatherDisplay:10.37,2013-07-09 21:43:00,
2013-07-09 17:48:00,84.0,83.4,30.75,SE,135,1.1,1.1,98,0.00,CLR,,0.30,WeatherDisplay:10.37,2013-07-09 21:48:00,
2013-07-09 17:53:00,84.2,83.6,30.75,SE,135,0.0,0.0,98,0.00,CLR,,0.30,WeatherDisplay:10.37,2013-07-09 21:53:00,
2013-07-09 17:58:00,84.2,83.6,30.75,SE,135,0.0,0.0,98,0.00,CLR,,0.30,WeatherDisplay:10.37,2013-07-09 21:58:00,
2013-07-09 18:03:00,84.0,83.4,29.32,SE,135,0.0,0.0,98,0.00,CLR,,0.30,WeatherDisplay:10.37,2013-07-09 22:03:00,
2013-07-09 18:08:00,84.2,83.6,29.32,SE,135,0.0,0.0,98,0.00,CLR,,0.30,WeatherDisplay:10.37,2013-07-09 22:08:00,
2013-07-09 18:13:00,84.0,83.4,28.35,SE,135,0.0,0.0,98,0.00,CLR,,0.30,WeatherDisplay:10.37,2013-07-09 22:13:00,
2013-07-09 18:18:00,84.2,83.6,28.35,SE,135,1.1,1.1,98,0.00,CLR,,0.30,WeatherDisplay:10.37,2013-07-09 22:18:00,
2013-07-09 18:23:00,84.0,83.4,28.75,SE,135,2.3,0.0,98,0.00,CLR,,0.30,WeatherDisplay:10.37,2013-07-09 22:23:00,
2013-07-09 18:28:00,84.0,83.4,28.75,SE,135,0.0,0.0,98,0.00,CLR,,0.30,WeatherDisplay:10.37,2013-07-09 22:28:00,
2013-07-09 18:33:00,83.5,82.9,28.75,SE,135,0.0,0.0,98,0.00,CLR,,0.30,WeatherDisplay:10.37,2013-07-09 22:33:00,
2013-07-09 18:38:00,83.8,83.2,30.34,SE,135,0.0,0.0,98,0.00,CLR,,0.30,WeatherDisplay:10.37,2013-07-09 22:38:00,
2013-07-09 18:43:00,83.8,83.2,30.34,SE,135,0.0,0.0,98,0.00,CLR,,0.30,WeatherDisplay:10.37,2013-07-09 22:43:00,
2013-07-09 18:48:00,83.5,82.9,31.17,SE,135,0.0,0.0,98,0.00,CLR,,0.30,WeatherDisplay:10.37,2013-07-09 22:48:00,
2013-07-09 18:53:00,83.5,82.9,31.17,SE,135,0.0,0.0,98,0.00,CLR,,0.30,WeatherDisplay:10.37,2013-07-09 22:53:00,
2013-07-09 18:58:00,83.5,82.9,31.17,SE,135,0.0,0.0,98,0.00,CLR,,0.30,WeatherDisplay:10.37,2013-07-09 22:58:00,
2013-07-09 19:03:00,83.1,82.5,31.69,SE,135,1.1,0.0,98,0.00,CLR,,0.30,WeatherDisplay:10.37,2013-07-09 23:03:00,
2013-07-09 19:08:00,83.1,82.5,31.69,SE,135,0.0,0.0,98,0.00,CLR,,0.30,WeatherDisplay:10.37,2013-07-09 23:08:00,
2013-07-09 19:13:00,83.1,82.5,32.00,SE,135,2.3,0.0,98,0.00,CLR,,0.30,WeatherDisplay:10.37,2013-07-09 23:13:00,
2013-07-09 19:18:00,82.9,82.3,32.00,SE,135,0.0,0.0,98,0.00,CLR,,0.30,WeatherDisplay:10.37,2013-07-09 23:18:00,
2013-07-09 19:23:00,82.8,82.2,32.17,SE,135,0.0,0.0,98,0.00,CLR,,0.30,WeatherDisplay:10.37,2013-07-09 23:23:00,
2013-07-09 19:28:00,82.8,82.2,32.17,SE,135,0.0,0.0,98,0.00,CLR,,0.30,WeatherDisplay:10.37,2013-07-09 23:28:00,
2013-07-09 19:33:00,82.6,82.0,32.17,SE,135,0.0,0.0,98,0.00,CLR,,0.30,WeatherDisplay:10.37,2013-07-09 23:33:00,
2013-07-09 19:38:00,82.6,82.0,32.34,SE,135,0.0,0.0,98,0.00,CLR,,0.30,WeatherDisplay:10.37,2013-07-09 23:38:00,
2013-07-09 19:43:00,82.4,81.8,32.34,SE,135,0.0,0.0,98,0.00,CLR,,0.30,WeatherDisplay:10.37,2013-07-09 23:43:00,
2013-07-09 19:48:00,82.4,81.8,31.69,SE,135,0.0,0.0,98,0.00,CLR,,0.30,WeatherDisplay:10.37,2013-07-09 23:48:00,
2013-07-09 19:53:00,82.4,81.8,31.69,SE,135,1.1,0.0,98,0.00,CLR,,0.30,WeatherDisplay:10.37,2013-07-09 23:53:00,
2013-07-09 19:58:00,82.0,81.4,31.69,SE,135,0.0,0.0,98,0.00,CLR,,0.30,WeatherDisplay:10.37,2013-07-09 23:58:00,
2013-07-09 20:03:00,82.0,81.4,31.69,SE,135,1.1,1.1,98,0.00,CLR,,0.30,WeatherDisplay:10.37,2013-07-10 00:03:00,
2013-07-09 20:08:00,81.9,81.3,31.69,SE,135,0.0,0.0,98,0.00,CLR,,0.30,WeatherDisplay:10.37,2013-07-10 00:08:00,
2013-07-09 20:13:00,81.5,80.9,31.69,SE,135,1.1,1.1,98,0.00,CLR,,0.30,WeatherDisplay:10.37,2013-07-10 00:13:00,
2013-07-09 20:18:00,81.5,80.9,31.69,SE,135,0.0,0.0,98,0.00,CLR,,0.30,WeatherDisplay:10.37,2013-07-10 00:18:00,
2013-07-09 20:23:00,81.3,80.7,31.69,SE,135,0.0,0.0,98,0.00,CLR,,0.30,WeatherDisplay:10.37,2013-07-10 00:23:00,
2013-07-09 20:28:00,81.1,80.5,31.69,SE,135,1.1,1.1,98,0.00,CLR,,0.30,WeatherDisplay:10.37,2013-07-10 00:28:00,
2013-07-09 20:33:00,81.1,80.5,31.69,SE,135,1.1,0.0,98,0.00,CLR,,0.30,WeatherDisplay:10.37,2013-07-10 00:33:00,
2013-07-09 20:38:00,81.0,80.4,32.35,SE,135,0.0,0.0,98,0.00,CLR,,0.30,WeatherDisplay:10.37,2013-07-10 00:38:00,
2013-07-09 20:43:00,81.0,80.4,32.35,SE,135,0.0,0.0,98,0.00,CLR,,0.30,WeatherDisplay:10.37,2013-07-10 00:43:00,
2013-07-09 20:48:00,80.8,80.2,32.01,SE,135,0.0,0.0,98,0.00,CLR,,0.30,WeatherDisplay:10.37,2013-07-10 00:48:00,
2013-07-09 20:53:00,80.8,80.2,32.01,SE,135,1.1,0.0,98,0.00,CLR,,0.30,WeatherDisplay:10.37,2013-07-10 00:53:00,
2013-07-09 20:58:00,80.8,80.2,31.96,SE,135,0.0,0.0,98,0.00,CLR,,0.30,WeatherDisplay:10.37,2013-07-10 00:58:00,
2013-07-09 21:03:00,80.8,80.2,31.96,SE,135,0.0,0.0,98,0.00,CLR,,0.30,WeatherDisplay:10.37,2013-07-10 01:03:00,
2013-07-09 21:08:00,80.8,80.2,31.96,SE,135,0.0,0.0,98,0.00,CLR,,0.30,WeatherDisplay:10.37,2013-07-10 01:08:00,
2013-07-09 21:13:00,80.8,80.2,32.03,SE,135,0.0,0.0,98,0.00,CLR,,0.30,WeatherDisplay:10.37,2013-07-10 01:13:00,
2013-07-09 21:18:00,80.6,80.0,32.03,SE,135,0.0,0.0,98,0.00,CLR,,0.30,WeatherDisplay:10.37,2013-07-10 01:18:00,
2013-07-09 21:23:00,80.6,80.0,32.31,SE,135,0.0,0.0,98,0.00,CLR,,0.30,WeatherDisplay:10.37,2013-07-10 01:23:00,
2013-07-09 21:28:00,80.6,80.0,32.31,SE,135,0.0,0.0,98,0.00,CLR,,0.30,WeatherDisplay:10.37,2013-07-10 01:28:00,
2013-07-09 21:33:00,80.6,80.0,32.31,SE,135,0.0,0.0,98,0.00,CLR,,0.30,WeatherDisplay:10.37,2013-07-10 01:33:00,
2013-07-09 21:38:00,80.6,80.0,31.69,SE,135,0.0,0.0,98,0.00,CLR,,0.30,WeatherDisplay:10.37,2013-07-10 01:38:00,
2013-07-09 21:43:00,80.6,80.0,31.69,SE,135,0.0,0.0,98,0.00,CLR,,0.30,WeatherDisplay:10.37,2013-07-10 01:43:00,
2013-07-09 21:48:00,80.6,80.0,31.69,SE,135,0.0,0.0,98,0.00,CLR,,0.30,WeatherDisplay:10.37,2013-07-10 01:48:00,
2013-07-09 21:53:00,80.4,79.8,31.69,SE,135,0.0,0.0,98,0.00,CLR,,0.30,WeatherDisplay:10.37,2013-07-10 01:53:00,
2013-07-09 21:58:00,80.4,79.8,31.69,SE,135,0.0,0.0,98,0.00,CLR,,0.30,WeatherDisplay:10.37,2013-07-10 01:58:00,
2013-07-09 22:03:00,80.4,79.8,31.69,SE,135,0.0,0.0,98,0.00,CLR,,0.30,WeatherDisplay:10.37,2013-07-10 02:03:00,
2013-07-09 22:09:00,80.4,79.8,31.69,SE,135,0.0,0.0,98,0.00,CLR,,0.30,WeatherDisplay:10.37,2013-07-10 02:09:00,
2013-07-09 22:14:00,80.2,79.6,31.69,SE,135,0.0,0.0,98,0.00,CLR,,0.30,WeatherDisplay:10.37,2013-07-10 02:14:00,
2013-07-09 22:19:00,80.2,79.6,31.69,SE,135,0.0,0.0,98,0.00,CLR,,0.30,WeatherDisplay:10.37,2013-07-10 02:19:00,
2013-07-09 22:24:00,80.2,79.6,31.87,SE,135,0.0,0.0,98,0.00,CLR,,0.30,WeatherDisplay:10.37,2013-07-10 02:24:00,
2013-07-09 22:29:00,80.2,79.6,31.87,SE,135,0.0,0.0,98,0.00,CLR,,0.30,WeatherDisplay:10.37,2013-07-10 02:29:00,
2013-07-09 22:34:00,80.2,79.6,31.87,SE,135,0.0,0.0,98,0.00,CLR,,0.30,WeatherDisplay:10.37,2013-07-10 02:34:00,
2013-07-09 22:39:00,80.2,79.6,30.37,SE,135,0.0,0.0,98,0.00,CLR,,0.30,WeatherDisplay:10.37,2013-07-10 02:39:00,
2013-07-09 22:44:00,80.2,79.6,30.37,SE,135,0.0,0.0,98,0.00,CLR,,0.30,WeatherDisplay:10.37,2013-07-10 02:44:00,
2013-07-09 22:49:00,80.1,79.5,29.41,SE,135,0.0,0.0,98,0.00,CLR,,0.30,WeatherDisplay:10.37,2013-07-10 02:49:00,
2013-07-09 22:54:00,79.9,79.3,29.41,SE,135,0.0,0.0,98,0.00,CLR,,0.30,WeatherDisplay:10.37,2013-07-10 02:54:00,
2013-07-09 22:59:00,79.9,79.3,28.86,SE,135,0.0,0.0,98,0.00,CLR,,0.30,WeatherDisplay:10.37,2013-07-10 02:59:00,
2013-07-09 23:04:00,79.9,79.3,28.86,SE,135,0.0,0.0,98,0.00,CLR,,0.30,WeatherDisplay:10.37,2013-07-10 03:04:00,
2013-07-09 23:09:00,79.9,79.3,28.86,SE,135,0.0,0.0,98,0.00,CLR,,0.30,WeatherDisplay:10.37,2013-07-10 03:09:00,
2013-07-09 23:14:00,79.7,79.1,29.01,SE,135,0.0,0.0,98,0.00,CLR,,0.30,WeatherDisplay:10.37,2013-07-10 03:14:00,
2013-07-09 23:19:00,79.7,79.1,29.01,SE,135,0.0,0.0,98,0.00,CLR,,0.30,WeatherDisplay:10.37,2013-07-10 03:19:00,
2013-07-09 23:24:00,79.7,79.1,30.78,SE,135,0.0,0.0,98,0.00,CLR,,0.30,WeatherDisplay:10.37,2013-07-10 03:24:00,
2013-07-09 23:29:00,79.7,79.1,30.78,SE,135,0.0,0.0,98,0.00,CLR,,0.30,WeatherDisplay:10.37,2013-07-10 03:29:00,
2013-07-09 23:34:00,79.7,79.1,30.78,SE,135,0.0,0.0,98,0.00,CLR,,0.30,WeatherDisplay:10.37,2013-07-10 03:34:00,
2013-07-09 23:39:00,79.5,78.9,32.02,SE,135,0.0,0.0,98,0.00,CLR,,0.30,WeatherDisplay:10.37,2013-07-10 03:39:00,
2013-07-09 23:44:00,79.5,78.9,32.02,SE,135,0.0,0.0,98,0.00,CLR,,0.30,WeatherDisplay:10.37,2013-07-10 03:44:00,
2013-07-09 23:49:00,79.5,78.9,30.78,SE,135,0.0,0.0,98,0.00,CLR,,0.30,WeatherDisplay:10.37,2013-07-10 03:49:00,
2013-07-09 23:54:00,79.5,78.9,30.78,SE,135,0.0,0.0,98,0.00,CLR,,0.30,WeatherDisplay:10.37,2013-07-10 03:54:00,
2013-07-09 23:59:00,79.5,78.9,30.78,SE,135,0.0,0.0,98,0.00,CLR,,0.30,WeatherDisplay:10.37,2013-07-10 03:59:00,